Aviation Digital Data Service (ADDS)

Output produced by METARs form (2224 UTC 17 October 2017)
found at http://aviationweather.gov/adds/metars/
 
METAR text: KBFM 172153Z 02009KT 10SM CLR 25/14 A3014 RMK AO2 SLP205 T02500144
Conditions at: KBFM (MOBILE/BROOKLEY , AL, US) observed 2153 UTC 17 October 2017
Temperature: 25.0°C (77°F)
Dewpoint: 14.4°C (58°F) [RH = 52%]
Pressure (altimeter): 30.14 inches Hg (1020.7 mb)
[Sea-level pressure: 1020.5 mb]
Winds: from the NNE (20 degrees) at 10 MPH (9 knots; 4.7 m/s)
Visibility: 10 or more miles (16+ km)
Ceiling: at least 12,000 feet AGL
Clouds: sky clear below 12,000 feet AGL
Weather: no significant weather observed at this time